sensor_id;sensor_type;location;lat;lon;timestamp;temperature;humidity
7143;DHT22;3613;48.902;9.204;2022-12-29T00:01:31;9.60;99.90
7143;DHT22;3613;48.902;9.204;2022-12-29T00:03:57;9.70;99.90
7143;DHT22;3613;48.902;9.204;2022-12-29T00:06:23;9.70;99.90
7143;DHT22;3613;48.902;9.204;2022-12-29T00:08:51;9.80;99.90
7143;DHT22;3613;48.902;9.204;2022-12-29T00:11:22;9.80;99.90
7143;DHT22;3613;48.902;9.204;2022-12-29T00:13:49;9.80;99.90
7143;DHT22;3613;48.902;9.204;2022-12-29T00:16:35;9.80;99.90
7143;DHT22;3613;48.902;9.204;2022-12-29T00:19:03;9.80;99.90
7143;DHT22;3613;48.902;9.204;2022-12-29T00:21:29;9.90;99.90
7143;DHT22;3613;48.902;9.204;2022-12-29T00:24:16;10.00;99.90
7143;DHT22;3613;48.902;9.204;2022-12-29T00:29:47;10.00;99.90
7143;DHT22;3613;48.902;9.204;2022-12-29T00:32:31;10.20;99.90
7143;DHT22;3613;48.902;9.204;2022-12-29T00:35:28;10.20;99.90
7143;DHT22;3613;48.902;9.204;2022-12-29T00:37:55;10.20;99.90
7143;DHT22;3613;48.902;9.204;2022-12-29T00:40:41;10.20;99.90
7143;DHT22;3613;48.902;9.204;2022-12-29T00:43:25;10.20;99.90
7143;DHT22;3613;48.902;9.204;2022-12-29T00:46:09;10.20;99.90
7143;DHT22;3613;48.902;9.204;2022-12-29T00:48:37;10.20;99.90
7143;DHT22;3613;48.902;9.204;2022-12-29T00:51:24;10.30;99.90
7143;DHT22;3613;48.902;9.204;2022-12-29T00:53:50;10.30;99.90
7143;DHT22;3613;48.902;9.204;2022-12-29T00:56:17;10.20;99.90
7143;DHT22;3613;48.902;9.204;2022-12-29T00:58:43;10.20;99.90
7143;DHT22;3613;48.902;9.204;2022-12-29T01:01:09;10.30;99.90
7143;DHT22;3613;48.902;9.204;2022-12-29T01:03:38;10.30;99.90
7143;DHT22;3613;48.902;9.204;2022-12-29T01:06:06;10.40;99.90
7143;DHT22;3613;48.902;9.204;2022-12-29T01:08:32;10.50;99.90
7143;DHT22;3613;48.902;9.204;2022-12-29T01:11:04;10.40;99.90
7143;DHT22;3613;48.902;9.204;2022-12-29T01:13:30;10.40;99.90
7143;DHT22;3613;48.902;9.204;2022-12-29T01:15:56;10.40;99.90
7143;DHT22;3613;48.902;9.204;2022-12-29T01:18:24;10.40;99.90
7143;DHT22;3613;48.902;9.204;2022-12-29T01:20:50;10.40;99.90
7143;DHT22;3613;48.902;9.204;2022-12-29T01:23:16;10.30;99.90
7143;DHT22;3613;48.902;9.204;2022-12-29T01:25:41;10.40;99.90
7143;DHT22;3613;48.902;9.204;2022-12-29T01:28:09;10.30;99.90
7143;DHT22;3613;48.902;9.204;2022-12-29T01:30:35;10.40;99.90
7143;DHT22;3613;48.902;9.204;2022-12-29T01:33:03;10.30;99.90
7143;DHT22;3613;48.902;9.204;2022-12-29T01:35:29;10.40;99.90
7143;DHT22;3613;48.902;9.204;2022-12-29T01:37:54;10.50;99.90
7143;DHT22;3613;48.902;9.204;2022-12-29T01:40:22;10.60;99.90
7143;DHT22;3613;48.902;9.204;2022-12-29T01:42:50;10.60;99.90
7143;DHT22;3613;48.902;9.204;2022-12-29T01:45:17;10.50;99.90
7143;DHT22;3613;48.902;9.204;2022-12-29T01:47:50;10.40;99.90
7143;DHT22;3613;48.902;9.204;2022-12-29T01:50:28;10.40;99.90
7143;DHT22;3613;48.902;9.204;2022-12-29T01:53:03;10.30;99.90
7143;DHT22;3613;48.902;9.204;2022-12-29T01:55:38;10.30;99.90
7143;DHT22;3613;48.902;9.204;2022-12-29T01:58:07;10.20;99.90
7143;DHT22;3613;48.902;9.204;2022-12-29T02:00:36;10.20;99.90
7143;DHT22;3613;48.902;9.204;2022-12-29T02:03:02;10.20;99.90
7143;DHT22;3613;48.902;9.204;2022-12-29T02:08:26;10.20;99.90
7143;DHT22;3613;48.902;9.204;2022-12-29T02:10:52;10.20;99.90
7143;DHT22;3613;48.902;9.204;2022-12-29T02:13:19;10.20;99.90
7143;DHT22;3613;48.902;9.204;2022-12-29T02:25:12;10.10;99.90
7143;DHT22;3613;48.902;9.204;2022-12-29T02:28:08;10.10;99.90
7143;DHT22;3613;48.902;9.204;2022-12-29T02:30:50;10.00;99.90
7143;DHT22;3613;48.902;9.204;2022-12-29T02:33:24;10.00;99.90
7143;DHT22;3613;48.902;9.204;2022-12-29T02:39:02;10.00;99.90
7143;DHT22;3613;48.902;9.204;2022-12-29T02:41:34;10.00;99.90
7143;DHT22;3613;48.902;9.204;2022-12-29T02:47:05;10.00;99.90
7143;DHT22;3613;48.902;9.204;2022-12-29T02:52:38;10.10;99.90
7143;DHT22;3613;48.902;9.204;2022-12-29T02:55:05;10.10;99.90
7143;DHT22;3613;48.902;9.204;2022-12-29T02:57:34;10.10;99.90
7143;DHT22;3613;48.902;9.204;2022-12-29T03:00:12;10.10;99.90
7143;DHT22;3613;48.902;9.204;2022-12-29T03:03:11;10.00;99.90
7143;DHT22;3613;48.902;9.204;2022-12-29T03:06:13;10.10;99.90
7143;DHT22;3613;48.902;9.204;2022-12-29T03:09:11;10.10;99.90
7143;DHT22;3613;48.902;9.204;2022-12-29T03:11:41;10.10;99.90
7143;DHT22;3613;48.902;9.204;2022-12-29T03:14:32;10.10;99.90
7143;DHT22;3613;48.902;9.204;2022-12-29T03:17:46;10.10;99.90
7143;DHT22;3613;48.902;9.204;2022-12-29T03:23:02;9.60;99.90
7143;DHT22;3613;48.902;9.204;2022-12-29T03:25:42;10.10;99.90
7143;DHT22;3613;48.902;9.204;2022-12-29T03:28:13;10.20;99.90
7143;DHT22;3613;48.902;9.204;2022-12-29T03:30:41;10.10;99.90
7143;DHT22;3613;48.902;9.204;2022-12-29T03:33:15;10.20;99.90
7143;DHT22;3613;48.902;9.204;2022-12-29T03:35:46;11.00;99.90
7143;DHT22;3613;48.902;9.204;2022-12-29T03:38:27;10.20;99.90
7143;DHT22;3613;48.902;9.204;2022-12-29T03:40:58;10.20;99.90
7143;DHT22;3613;48.902;9.204;2022-12-29T03:43:26;10.10;99.90
7143;DHT22;3613;48.902;9.204;2022-12-29T03:45:55;10.20;99.90
7143;DHT22;3613;48.902;9.204;2022-12-29T03:48:21;10.20;99.90
7143;DHT22;3613;48.902;9.204;2022-12-29T03:50:47;10.20;99.90
7143;DHT22;3613;48.902;9.204;2022-12-29T03:53:19;10.20;99.90
7143;DHT22;3613;48.902;9.204;2022-12-29T03:55:45;10.00;99.90
7143;DHT22;3613;48.902;9.204;2022-12-29T03:58:11;10.00;99.90
7143;DHT22;3613;48.902;9.204;2022-12-29T04:00:39;9.90;99.90
7143;DHT22;3613;48.902;9.204;2022-12-29T04:03:04;9.80;99.90
7143;DHT22;3613;48.902;9.204;2022-12-29T04:05:30;9.70;99.90
7143;DHT22;3613;48.902;9.204;2022-12-29T04:07:56;9.50;99.90
7143;DHT22;3613;48.902;9.204;2022-12-29T04:10:22;9.50;99.90
7143;DHT22;3613;48.902;9.204;2022-12-29T04:12:50;9.40;99.90
7143;DHT22;3613;48.902;9.204;2022-12-29T04:15:15;9.40;99.90
7143;DHT22;3613;48.902;9.204;2022-12-29T04:17:41;9.30;99.90
7143;DHT22;3613;48.902;9.204;2022-12-29T04:20:07;9.30;99.90
7143;DHT22;3613;48.902;9.204;2022-12-29T04:23:04;9.30;99.90
7143;DHT22;3613;48.902;9.204;2022-12-29T04:25:31;9.30;99.90
7143;DHT22;3613;48.902;9.204;2022-12-29T04:27:57;9.40;99.90
7143;DHT22;3613;48.902;9.204;2022-12-29T04:30:23;9.50;99.90
7143;DHT22;3613;48.902;9.204;2022-12-29T04:32:50;9.50;99.90
7143;DHT22;3613;48.902;9.204;2022-12-29T04:35:16;9.50;99.90
7143;DHT22;3613;48.902;9.204;2022-12-29T04:37:42;9.50;99.90
7143;DHT22;3613;48.902;9.204;2022-12-29T04:40:08;9.60;99.90
7143;DHT22;3613;48.902;9.204;2022-12-29T04:42:34;9.70;99.90
7143;DHT22;3613;48.902;9.204;2022-12-29T04:45:02;9.60;99.90
7143;DHT22;3613;48.902;9.204;2022-12-29T04:47:27;9.60;99.90
7143;DHT22;3613;48.902;9.204;2022-12-29T04:49:53;9.50;99.90
7143;DHT22;3613;48.902;9.204;2022-12-29T04:52:18;9.40;99.90
7143;DHT22;3613;48.902;9.204;2022-12-29T04:54:49;9.40;99.90
7143;DHT22;3613;48.902;9.204;2022-12-29T04:57:14;9.50;99.90
7143;DHT22;3613;48.902;9.204;2022-12-29T04:59:40;9.40;99.90
7143;DHT22;3613;48.902;9.204;2022-12-29T05:02:08;9.40;99.90
7143;DHT22;3613;48.902;9.204;2022-12-29T05:04:36;9.60;99.90
7143;DHT22;3613;48.902;9.204;2022-12-29T05:07:01;9.70;99.90
7143;DHT22;3613;48.902;9.204;2022-12-29T05:09:29;9.90;99.90
7143;DHT22;3613;48.902;9.204;2022-12-29T05:11:55;10.20;99.90
7143;DHT22;3613;48.902;9.204;2022-12-29T05:14:23;10.30;99.90
7143;DHT22;3613;48.902;9.204;2022-12-29T05:16:49;10.40;99.90
7143;DHT22;3613;48.902;9.204;2022-12-29T05:19:14;10.50;99.90
7143;DHT22;3613;48.902;9.204;2022-12-29T05:21:40;10.50;99.90
7143;DHT22;3613;48.902;9.204;2022-12-29T05:24:05;10.40;99.90
7143;DHT22;3613;48.902;9.204;2022-12-29T05:26:33;10.20;99.90
7143;DHT22;3613;48.902;9.204;2022-12-29T05:28:59;10.40;99.90
7143;DHT22;3613;48.902;9.204;2022-12-29T05:31:29;10.40;99.90
7143;DHT22;3613;48.902;9.204;2022-12-29T05:33:55;10.40;99.90
7143;DHT22;3613;48.902;9.204;2022-12-29T05:36:21;10.40;99.90
7143;DHT22;3613;48.902;9.204;2022-12-29T05:38:46;10.40;99.90
7143;DHT22;3613;48.902;9.204;2022-12-29T05:41:12;10.60;99.90
7143;DHT22;3613;48.902;9.204;2022-12-29T05:43:40;10.60;99.90
7143;DHT22;3613;48.902;9.204;2022-12-29T05:46:08;10.70;99.90
7143;DHT22;3613;48.902;9.204;2022-12-29T05:48:33;10.90;99.90
7143;DHT22;3613;48.902;9.204;2022-12-29T05:51:01;11.00;99.90
7143;DHT22;3613;48.902;9.204;2022-12-29T05:53:27;11.10;99.90
7143;DHT22;3613;48.902;9.204;2022-12-29T05:55:55;11.10;99.90
7143;DHT22;3613;48.902;9.204;2022-12-29T05:58:22;11.20;99.90
7143;DHT22;3613;48.902;9.204;2022-12-29T06:00:48;12.20;99.90
7143;DHT22;3613;48.902;9.204;2022-12-29T06:03:14;11.50;99.90
7143;DHT22;3613;48.902;9.204;2022-12-29T06:05:41;11.50;99.90
7143;DHT22;3613;48.902;9.204;2022-12-29T06:08:09;11.60;99.90
7143;DHT22;3613;48.902;9.204;2022-12-29T06:10:35;11.40;99.90
7143;DHT22;3613;48.902;9.204;2022-12-29T06:13:01;11.30;99.90
7143;DHT22;3613;48.902;9.204;2022-12-29T06:15:29;11.20;99.90
7143;DHT22;3613;48.902;9.204;2022-12-29T06:17:54;11.10;99.90
7143;DHT22;3613;48.902;9.204;2022-12-29T06:20:20;11.00;99.90
7143;DHT22;3613;48.902;9.204;2022-12-29T06:22:46;10.90;99.90
7143;DHT22;3613;48.902;9.204;2022-12-29T06:25:14;10.90;99.90
7143;DHT22;3613;48.902;9.204;2022-12-29T06:27:43;10.90;99.90
7143;DHT22;3613;48.902;9.204;2022-12-29T06:30:09;10.90;99.90
7143;DHT22;3613;48.902;9.204;2022-12-29T06:32:38;10.80;99.90
7143;DHT22;3613;48.902;9.204;2022-12-29T06:35:05;10.80;99.90
7143;DHT22;3613;48.902;9.204;2022-12-29T06:37:31;10.70;99.90
7143;DHT22;3613;48.902;9.204;2022-12-29T06:39:59;10.80;99.90
7143;DHT22;3613;48.902;9.204;2022-12-29T06:42:25;10.70;99.90
7143;DHT22;3613;48.902;9.204;2022-12-29T06:44:50;10.70;99.90
7143;DHT22;3613;48.902;9.204;2022-12-29T06:47:16;10.70;99.90
7143;DHT22;3613;48.902;9.204;2022-12-29T06:49:41;10.70;99.90
7143;DHT22;3613;48.902;9.204;2022-12-29T06:52:09;10.70;99.90
7143;DHT22;3613;48.902;9.204;2022-12-29T06:54:35;10.70;99.90
7143;DHT22;3613;48.902;9.204;2022-12-29T06:57:00;10.70;99.90
7143;DHT22;3613;48.902;9.204;2022-12-29T06:59:26;10.70;99.90
7143;DHT22;3613;48.902;9.204;2022-12-29T07:01:52;10.80;99.90
7143;DHT22;3613;48.902;9.204;2022-12-29T07:04:20;10.70;99.90
7143;DHT22;3613;48.902;9.204;2022-12-29T07:06:48;10.70;99.90
7143;DHT22;3613;48.902;9.204;2022-12-29T07:09:16;10.60;99.90
7143;DHT22;3613;48.902;9.204;2022-12-29T07:11:42;10.70;99.90
7143;DHT22;3613;48.902;9.204;2022-12-29T07:14:07;10.80;99.90
7143;DHT22;3613;48.902;9.204;2022-12-29T07:16:33;10.80;99.90
7143;DHT22;3613;48.902;9.204;2022-12-29T07:18:59;10.80;99.90
7143;DHT22;3613;48.902;9.204;2022-12-29T07:21:25;10.80;99.90
7143;DHT22;3613;48.902;9.204;2022-12-29T07:23:51;10.80;99.90
7143;DHT22;3613;48.902;9.204;2022-12-29T07:26:16;10.80;99.90
7143;DHT22;3613;48.902;9.204;2022-12-29T07:28:43;10.70;99.90
7143;DHT22;3613;48.902;9.204;2022-12-29T07:31:20;10.80;99.90
7143;DHT22;3613;48.902;9.204;2022-12-29T07:33:47;10.90;99.90
7143;DHT22;3613;48.902;9.204;2022-12-29T07:36:15;10.80;99.90
7143;DHT22;3613;48.902;9.204;2022-12-29T07:38:42;10.80;99.90
7143;DHT22;3613;48.902;9.204;2022-12-29T07:41:08;10.80;99.90
7143;DHT22;3613;48.902;9.204;2022-12-29T07:43:34;11.00;99.90
7143;DHT22;3613;48.902;9.204;2022-12-29T07:46:04;10.90;99.90
7143;DHT22;3613;48.902;9.204;2022-12-29T07:48:29;10.90;99.90
7143;DHT22;3613;48.902;9.204;2022-12-29T07:50:57;10.90;99.90
7143;DHT22;3613;48.902;9.204;2022-12-29T07:53:23;10.80;99.90
7143;DHT22;3613;48.902;9.204;2022-12-29T07:55:52;10.80;99.90
7143;DHT22;3613;48.902;9.204;2022-12-29T07:58:19;10.80;99.90
7143;DHT22;3613;48.902;9.204;2022-12-29T08:00:45;10.90;99.90
7143;DHT22;3613;48.902;9.204;2022-12-29T08:03:10;10.90;99.90
7143;DHT22;3613;48.902;9.204;2022-12-29T08:05:36;10.90;99.90
7143;DHT22;3613;48.902;9.204;2022-12-29T08:08:02;11.00;99.90
7143;DHT22;3613;48.902;9.204;2022-12-29T08:10:28;11.00;99.90
7143;DHT22;3613;48.902;9.204;2022-12-29T08:12:55;11.20;99.90
7143;DHT22;3613;48.902;9.204;2022-12-29T08:15:21;11.30;99.90
7143;DHT22;3613;48.902;9.204;2022-12-29T08:17:47;11.40;99.90
7143;DHT22;3613;48.902;9.204;2022-12-29T08:20:12;11.50;99.90
7143;DHT22;3613;48.902;9.204;2022-12-29T08:22:40;11.60;99.90
7143;DHT22;3613;48.902;9.204;2022-12-29T08:25:06;11.60;99.90
7143;DHT22;3613;48.902;9.204;2022-12-29T08:27:34;11.70;99.90
7143;DHT22;3613;48.902;9.204;2022-12-29T08:30:00;11.80;99.90
7143;DHT22;3613;48.902;9.204;2022-12-29T08:32:27;11.80;99.90
7143;DHT22;3613;48.902;9.204;2022-12-29T08:34:53;11.80;99.90
7143;DHT22;3613;48.902;9.204;2022-12-29T08:37:21;11.90;99.90
7143;DHT22;3613;48.902;9.204;2022-12-29T08:39:47;11.80;99.90
7143;DHT22;3613;48.902;9.204;2022-12-29T08:42:13;11.80;99.90
7143;DHT22;3613;48.902;9.204;2022-12-29T08:44:39;11.80;99.90
7143;DHT22;3613;48.902;9.204;2022-12-29T08:47:05;11.80;99.90
7143;DHT22;3613;48.902;9.204;2022-12-29T08:49:30;11.80;99.90
7143;DHT22;3613;48.902;9.204;2022-12-29T08:51:56;11.90;99.90
7143;DHT22;3613;48.902;9.204;2022-12-29T08:54:22;11.80;99.90
7143;DHT22;3613;48.902;9.204;2022-12-29T08:56:47;11.80;99.90
7143;DHT22;3613;48.902;9.204;2022-12-29T08:59:13;11.90;99.90
7143;DHT22;3613;48.902;9.204;2022-12-29T09:01:39;11.90;99.90
7143;DHT22;3613;48.902;9.204;2022-12-29T09:04:06;11.80;99.90
7143;DHT22;3613;48.902;9.204;2022-12-29T09:06:34;11.90;99.90
7143;DHT22;3613;48.902;9.204;2022-12-29T09:09:00;11.90;99.90
7143;DHT22;3613;48.902;9.204;2022-12-29T09:11:26;11.90;99.90
7143;DHT22;3613;48.902;9.204;2022-12-29T09:13:52;12.20;99.90
7143;DHT22;3613;48.902;9.204;2022-12-29T09:16:22;12.20;99.90
7143;DHT22;3613;48.902;9.204;2022-12-29T09:18:48;12.20;99.90
7143;DHT22;3613;48.902;9.204;2022-12-29T09:21:16;12.30;99.90
7143;DHT22;3613;48.902;9.204;2022-12-29T09:23:50;12.50;99.90
7143;DHT22;3613;48.902;9.204;2022-12-29T09:26:16;12.60;99.90
7143;DHT22;3613;48.902;9.204;2022-12-29T09:28:44;12.60;99.90
7143;DHT22;3613;48.902;9.204;2022-12-29T09:31:10;12.60;99.90
7143;DHT22;3613;48.902;9.204;2022-12-29T09:33:36;12.70;99.90
7143;DHT22;3613;48.902;9.204;2022-12-29T09:36:04;12.70;99.90
7143;DHT22;3613;48.902;9.204;2022-12-29T09:38:32;12.80;99.90
7143;DHT22;3613;48.902;9.204;2022-12-29T09:41:18;12.80;99.90
7143;DHT22;3613;48.902;9.204;2022-12-29T09:46:47;12.90;99.90
7143;DHT22;3613;48.902;9.204;2022-12-29T09:51:59;13.00;99.90
7143;DHT22;3613;48.902;9.204;2022-12-29T09:57:33;13.00;99.90
7143;DHT22;3613;48.902;9.204;2022-12-29T10:00:09;13.00;99.90
7143;DHT22;3613;48.902;9.204;2022-12-29T10:02:42;13.20;99.90
7143;DHT22;3613;48.902;9.204;2022-12-29T10:05:48;13.20;99.90
7143;DHT22;3613;48.902;9.204;2022-12-29T10:08:45;13.10;99.90
7143;DHT22;3613;48.902;9.204;2022-12-29T10:17:04;12.90;99.90
7143;DHT22;3613;48.902;9.204;2022-12-29T10:24:59;13.00;99.90
7143;DHT22;3613;48.902;9.204;2022-12-29T10:27:30;13.00;99.90
7143;DHT22;3613;48.902;9.204;2022-12-29T10:29:58;13.00;99.90
7143;DHT22;3613;48.902;9.204;2022-12-29T10:32:55;13.00;99.90
7143;DHT22;3613;48.902;9.204;2022-12-29T10:35:31;13.00;99.90
7143;DHT22;3613;48.902;9.204;2022-12-29T10:43:22;13.40;99.90
7143;DHT22;3613;48.902;9.204;2022-12-29T10:45:49;13.50;99.90
7143;DHT22;3613;48.902;9.204;2022-12-29T10:48:25;13.60;99.90
7143;DHT22;3613;48.902;9.204;2022-12-29T10:50:55;13.60;99.90
7143;DHT22;3613;48.902;9.204;2022-12-29T10:53:25;13.60;99.90
7143;DHT22;3613;48.902;9.204;2022-12-29T10:55:52;13.40;99.90
7143;DHT22;3613;48.902;9.204;2022-12-29T10:58:19;14.80;99.90
7143;DHT22;3613;48.902;9.204;2022-12-29T11:00:51;13.20;99.90
7143;DHT22;3613;48.902;9.204;2022-12-29T11:03:38;13.20;99.90
7143;DHT22;3613;48.902;9.204;2022-12-29T11:06:14;13.10;99.90
7143;DHT22;3613;48.902;9.204;2022-12-29T11:08:51;13.10;99.90
7143;DHT22;3613;48.902;9.204;2022-12-29T11:11:27;13.00;99.90
7143;DHT22;3613;48.902;9.204;2022-12-29T11:14:08;13.00;99.90
7143;DHT22;3613;48.902;9.204;2022-12-29T11:16:41;13.20;99.90
7143;DHT22;3613;48.902;9.204;2022-12-29T11:19:20;13.40;99.90
7143;DHT22;3613;48.902;9.204;2022-12-29T11:21:47;13.60;99.90
7143;DHT22;3613;48.902;9.204;2022-12-29T11:24:24;13.80;99.90
7143;DHT22;3613;48.902;9.204;2022-12-29T11:26:52;13.90;99.90
7143;DHT22;3613;48.902;9.204;2022-12-29T11:29:29;13.90;99.90
7143;DHT22;3613;48.902;9.204;2022-12-29T11:32:12;14.00;99.90
7143;DHT22;3613;48.902;9.204;2022-12-29T11:34:38;14.00;99.90
7143;DHT22;3613;48.902;9.204;2022-12-29T11:42:52;14.10;99.90
7143;DHT22;3613;48.902;9.204;2022-12-29T11:45:21;14.00;99.90
7143;DHT22;3613;48.902;9.204;2022-12-29T11:47:54;13.80;99.90
7143;DHT22;3613;48.902;9.204;2022-12-29T11:50:28;13.70;99.90
7143;DHT22;3613;48.902;9.204;2022-12-29T11:54:06;13.70;99.90
7143;DHT22;3613;48.902;9.204;2022-12-29T11:56:04;13.70;99.90
7143;DHT22;3613;48.902;9.204;2022-12-29T11:58:35;13.70;99.90
7143;DHT22;3613;48.902;9.204;2022-12-29T12:06:20;13.60;99.90
7143;DHT22;3613;48.902;9.204;2022-12-29T12:09:02;13.50;99.90
7143;DHT22;3613;48.902;9.204;2022-12-29T12:11:39;13.50;99.90
7143;DHT22;3613;48.902;9.204;2022-12-29T12:16:37;13.30;99.90
7143;DHT22;3613;48.902;9.204;2022-12-29T12:19:25;13.20;99.90
7143;DHT22;3613;48.902;9.204;2022-12-29T12:21:59;13.20;99.90
7143;DHT22;3613;48.902;9.204;2022-12-29T12:29:52;13.30;99.90
7143;DHT22;3613;48.902;9.204;2022-12-29T12:34:55;13.20;99.90
7143;DHT22;3613;48.902;9.204;2022-12-29T12:38:16;13.20;99.90
7143;DHT22;3613;48.902;9.204;2022-12-29T12:41:08;13.30;99.90
7143;DHT22;3613;48.902;9.204;2022-12-29T12:49:34;13.70;99.90
7143;DHT22;3613;48.902;9.204;2022-12-29T12:52:04;13.70;99.90
7143;DHT22;3613;48.902;9.204;2022-12-29T13:00:11;14.00;99.90
7143;DHT22;3613;48.902;9.204;2022-12-29T13:03:08;14.20;99.90
7143;DHT22;3613;48.902;9.204;2022-12-29T13:11:12;14.40;99.90
7143;DHT22;3613;48.902;9.204;2022-12-29T13:14:03;14.30;99.90
7143;DHT22;3613;48.902;9.204;2022-12-29T13:35:18;13.60;99.90
7143;DHT22;3613;48.902;9.204;2022-12-29T13:38:32;13.50;99.90
7143;DHT22;3613;48.902;9.204;2022-12-29T13:40:55;13.40;99.90
7143;DHT22;3613;48.902;9.204;2022-12-29T13:43:23;13.30;99.90
7143;DHT22;3613;48.902;9.204;2022-12-29T13:45:57;13.20;99.90
7143;DHT22;3613;48.902;9.204;2022-12-29T13:48:34;13.20;99.90
7143;DHT22;3613;48.902;9.204;2022-12-29T13:51:04;13.10;99.90
7143;DHT22;3613;48.902;9.204;2022-12-29T13:56:49;13.00;99.90
7143;DHT22;3613;48.902;9.204;2022-12-29T13:59:21;12.90;99.90
7143;DHT22;3613;48.902;9.204;2022-12-29T14:02:15;12.90;99.90
7143;DHT22;3613;48.902;9.204;2022-12-29T14:07:45;12.80;99.90
7143;DHT22;3613;48.902;9.204;2022-12-29T14:15:50;12.80;99.90
7143;DHT22;3613;48.902;9.204;2022-12-29T14:21:00;12.70;99.90
7143;DHT22;3613;48.902;9.204;2022-12-29T14:23:41;12.70;99.90
7143;DHT22;3613;48.902;9.204;2022-12-29T14:26:12;12.70;99.90
7143;DHT22;3613;48.902;9.204;2022-12-29T14:28:46;12.70;99.90
7143;DHT22;3613;48.902;9.204;2022-12-29T14:33:40;12.60;99.90
7143;DHT22;3613;48.902;9.204;2022-12-29T14:36:20;12.60;99.90
7143;DHT22;3613;48.902;9.204;2022-12-29T14:38:47;12.60;99.90
7143;DHT22;3613;48.902;9.204;2022-12-29T14:41:26;12.60;99.90
7143;DHT22;3613;48.902;9.204;2022-12-29T14:47:05;12.50;99.90
7143;DHT22;3613;48.902;9.204;2022-12-29T14:49:39;12.50;99.90
7143;DHT22;3613;48.902;9.204;2022-12-29T14:52:13;12.50;99.90
7143;DHT22;3613;48.902;9.204;2022-12-29T14:54:52;12.50;99.90
7143;DHT22;3613;48.902;9.204;2022-12-29T14:57:39;12.40;99.90
7143;DHT22;3613;48.902;9.204;2022-12-29T15:00:21;12.40;99.90
7143;DHT22;3613;48.902;9.204;2022-12-29T15:03:02;12.30;99.90
7143;DHT22;3613;48.902;9.204;2022-12-29T15:08:01;12.30;99.90
7143;DHT22;3613;48.902;9.204;2022-12-29T15:10:35;12.30;99.90
7143;DHT22;3613;48.902;9.204;2022-12-29T15:13:13;12.30;99.90
7143;DHT22;3613;48.902;9.204;2022-12-29T15:15:40;12.30;99.90
7143;DHT22;3613;48.902;9.204;2022-12-29T15:18:24;12.30;99.90
7143;DHT22;3613;48.902;9.204;2022-12-29T15:20:55;12.30;99.90
7143;DHT22;3613;48.902;9.204;2022-12-29T15:23:30;12.20;99.90
7143;DHT22;3613;48.902;9.204;2022-12-29T15:26:07;12.20;99.90
7143;DHT22;3613;48.902;9.204;2022-12-29T15:28:44;12.10;99.90
7143;DHT22;3613;48.902;9.204;2022-12-29T15:31:18;12.10;99.90
7143;DHT22;3613;48.902;9.204;2022-12-29T15:33:53;12.10;99.90
7143;DHT22;3613;48.902;9.204;2022-12-29T15:36:22;12.10;99.90
7143;DHT22;3613;48.902;9.204;2022-12-29T15:38:52;11.90;99.90
7143;DHT22;3613;48.902;9.204;2022-12-29T15:41:22;11.20;99.90
7143;DHT22;3613;48.902;9.204;2022-12-29T15:46:24;10.20;99.90
7143;DHT22;3613;48.902;9.204;2022-12-29T15:48:52;9.90;99.90
7143;DHT22;3613;48.902;9.204;2022-12-29T15:51:30;9.70;99.90
7143;DHT22;3613;48.902;9.204;2022-12-29T15:54:00;9.50;99.90
7143;DHT22;3613;48.902;9.204;2022-12-29T15:56:28;9.40;99.90
7143;DHT22;3613;48.902;9.204;2022-12-29T15:58:57;9.40;99.90
7143;DHT22;3613;48.902;9.204;2022-12-29T16:01:26;9.30;99.90
7143;DHT22;3613;48.902;9.204;2022-12-29T16:03:52;9.30;99.90
7143;DHT22;3613;48.902;9.204;2022-12-29T16:06:36;9.30;99.90
7143;DHT22;3613;48.902;9.204;2022-12-29T16:09:04;9.20;99.90
7143;DHT22;3613;48.902;9.204;2022-12-29T16:13:58;9.20;99.90
7143;DHT22;3613;48.902;9.204;2022-12-29T16:16:33;9.20;99.90
7143;DHT22;3613;48.902;9.204;2022-12-29T16:19:17;9.20;99.90
7143;DHT22;3613;48.902;9.204;2022-12-29T16:21:44;9.20;99.90
7143;DHT22;3613;48.902;9.204;2022-12-29T16:24:19;9.20;99.90
7143;DHT22;3613;48.902;9.204;2022-12-29T16:27:07;9.10;99.90
7143;DHT22;3613;48.902;9.204;2022-12-29T16:29:33;9.10;99.90
7143;DHT22;3613;48.902;9.204;2022-12-29T16:32:02;9.10;99.90
7143;DHT22;3613;48.902;9.204;2022-12-29T16:34:51;9.10;99.90
7143;DHT22;3613;48.902;9.204;2022-12-29T16:37:35;9.00;99.90
7143;DHT22;3613;48.902;9.204;2022-12-29T16:42:55;8.90;99.90
7143;DHT22;3613;48.902;9.204;2022-12-29T16:48:16;9.00;99.90
7143;DHT22;3613;48.902;9.204;2022-12-29T16:50:44;9.00;99.90
7143;DHT22;3613;48.902;9.204;2022-12-29T16:53:27;9.00;99.90
7143;DHT22;3613;48.902;9.204;2022-12-29T16:55:54;9.00;99.90
7143;DHT22;3613;48.902;9.204;2022-12-29T16:58:23;9.10;99.90
7143;DHT22;3613;48.902;9.204;2022-12-29T17:00:52;9.00;99.90
7143;DHT22;3613;48.902;9.204;2022-12-29T17:03:23;9.00;99.90
7143;DHT22;3613;48.902;9.204;2022-12-29T17:05:53;9.00;99.90
7143;DHT22;3613;48.902;9.204;2022-12-29T17:08:20;9.00;99.90
7143;DHT22;3613;48.902;9.204;2022-12-29T17:10:54;9.00;99.90
7143;DHT22;3613;48.902;9.204;2022-12-29T17:13:39;9.00;99.90
7143;DHT22;3613;48.902;9.204;2022-12-29T17:16:09;9.80;99.90
7143;DHT22;3613;48.902;9.204;2022-12-29T17:18:36;8.90;99.90
7143;DHT22;3613;48.902;9.204;2022-12-29T17:21:02;8.90;99.90
7143;DHT22;3613;48.902;9.204;2022-12-29T17:23:30;8.90;99.90
7143;DHT22;3613;48.902;9.204;2022-12-29T17:25:57;9.00;99.90
7143;DHT22;3613;48.902;9.204;2022-12-29T17:28:31;8.90;99.90
7143;DHT22;3613;48.902;9.204;2022-12-29T17:31:02;8.90;99.90
7143;DHT22;3613;48.902;9.204;2022-12-29T17:33:37;8.90;99.90
7143;DHT22;3613;48.902;9.204;2022-12-29T17:36:04;8.90;99.90
7143;DHT22;3613;48.902;9.204;2022-12-29T17:38:33;8.90;99.90
7143;DHT22;3613;48.902;9.204;2022-12-29T17:41:02;8.90;99.90
7143;DHT22;3613;48.902;9.204;2022-12-29T17:43:28;8.90;99.90
7143;DHT22;3613;48.902;9.204;2022-12-29T17:45:57;8.90;99.90
7143;DHT22;3613;48.902;9.204;2022-12-29T17:48:24;8.90;99.90
7143;DHT22;3613;48.902;9.204;2022-12-29T17:50:51;8.90;99.90
7143;DHT22;3613;48.902;9.204;2022-12-29T17:53:28;8.80;99.90
7143;DHT22;3613;48.902;9.204;2022-12-29T17:55:53;8.90;99.90
7143;DHT22;3613;48.902;9.204;2022-12-29T17:58:24;8.80;99.90
7143;DHT22;3613;48.902;9.204;2022-12-29T18:00:54;8.80;99.90
7143;DHT22;3613;48.902;9.204;2022-12-29T18:05:59;8.80;99.90
7143;DHT22;3613;48.902;9.204;2022-12-29T18:08:27;8.80;99.90
7143;DHT22;3613;48.902;9.204;2022-12-29T18:10:54;8.80;99.90
7143;DHT22;3613;48.902;9.204;2022-12-29T18:13:23;8.70;99.90
7143;DHT22;3613;48.902;9.204;2022-12-29T18:15:51;8.70;99.90
7143;DHT22;3613;48.902;9.204;2022-12-29T18:18:24;8.70;99.90
7143;DHT22;3613;48.902;9.204;2022-12-29T18:20:54;8.70;99.90
7143;DHT22;3613;48.902;9.204;2022-12-29T18:23:24;8.70;99.90
7143;DHT22;3613;48.902;9.204;2022-12-29T18:26:00;8.60;99.90
7143;DHT22;3613;48.902;9.204;2022-12-29T18:28:29;8.60;99.90
7143;DHT22;3613;48.902;9.204;2022-12-29T18:31:01;8.60;99.90
7143;DHT22;3613;48.902;9.204;2022-12-29T18:33:27;8.60;99.90
7143;DHT22;3613;48.902;9.204;2022-12-29T18:36:01;8.60;99.90
7143;DHT22;3613;48.902;9.204;2022-12-29T18:38:27;8.50;99.90
7143;DHT22;3613;48.902;9.204;2022-12-29T18:40:54;8.40;99.90
7143;DHT22;3613;48.902;9.204;2022-12-29T18:43:25;8.40;99.90
7143;DHT22;3613;48.902;9.204;2022-12-29T18:45:50;8.40;99.90
7143;DHT22;3613;48.902;9.204;2022-12-29T18:48:19;8.40;99.90
7143;DHT22;3613;48.902;9.204;2022-12-29T18:50:48;8.30;99.90
7143;DHT22;3613;48.902;9.204;2022-12-29T18:53:18;8.30;99.90
7143;DHT22;3613;48.902;9.204;2022-12-29T18:55:44;8.30;99.90
7143;DHT22;3613;48.902;9.204;2022-12-29T18:58:10;8.30;99.90